sensor_id;sensor_type;location;lat;lon;timestamp;pressure;altitude;pressure_sealevel;temperature;humidity
77587;BME280;66744;49.716;17.158;2023-12-20T00:00:39;98913.25;;;2.30;80.63
77587;BME280;66744;49.716;17.158;2023-12-20T00:03:45;98908.63;;;2.30;81.22
77587;BME280;66744;49.716;17.158;2023-12-20T00:06:46;98897.41;;;2.32;81.13
77587;BME280;66744;49.716;17.158;2023-12-20T00:09:48;98900.13;;;2.32;80.80
77587;BME280;66744;49.716;17.158;2023-12-20T00:12:54;98899.72;;;2.33;81.36
77587;BME280;66744;49.716;17.158;2023-12-20T00:15:56;98887.69;;;2.27;80.66
77587;BME280;66744;49.716;17.158;2023-12-20T00:19:01;98877.25;;;2.22;81.02
77587;BME280;66744;49.716;17.158;2023-12-20T00:22:02;98881.09;;;2.21;81.66
77587;BME280;66744;49.716;17.158;2023-12-20T00:25:04;98881.47;;;2.23;81.54
77587;BME280;66744;49.716;17.158;2023-12-20T00:28:09;98877.59;;;2.20;81.53
77587;BME280;66744;49.716;17.158;2023-12-20T00:31:16;98874.13;;;2.20;81.65
77587;BME280;66744;49.716;17.158;2023-12-20T00:34:18;98868.69;;;2.20;81.11
77587;BME280;66744;49.716;17.158;2023-12-20T00:37:19;98859.81;;;2.19;81.39
77587;BME280;66744;49.716;17.158;2023-12-20T00:40:23;98852.06;;;2.18;81.26
77587;BME280;66744;49.716;17.158;2023-12-20T00:43:24;98860.59;;;2.16;80.94
77587;BME280;66744;49.716;17.158;2023-12-20T00:46:26;98855.16;;;2.13;81.92
77587;BME280;66744;49.716;17.158;2023-12-20T00:49:32;98850.09;;;2.11;81.06
77587;BME280;66744;49.716;17.158;2023-12-20T00:52:36;98849.31;;;2.14;82.07
77587;BME280;66744;49.716;17.158;2023-12-20T00:55:47;98853.63;;;2.19;81.29
77587;BME280;66744;49.716;17.158;2023-12-20T00:58:49;98841.97;;;2.15;81.14
77587;BME280;66744;49.716;17.158;2023-12-20T01:01:54;98843.53;;;2.16;81.45
77587;BME280;66744;49.716;17.158;2023-12-20T01:04:58;98847.03;;;2.23;81.43
77587;BME280;66744;49.716;17.158;2023-12-20T01:08:00;98824.59;;;2.27;81.24
77587;BME280;66744;49.716;17.158;2023-12-20T01:11:05;98835.41;;;2.23;82.37
77587;BME280;66744;49.716;17.158;2023-12-20T01:14:09;98823.06;;;2.26;81.31
77587;BME280;66744;49.716;17.158;2023-12-20T01:17:11;98830.00;;;2.27;81.37
77587;BME280;66744;49.716;17.158;2023-12-20T01:20:15;98826.94;;;2.28;81.44
77587;BME280;66744;49.716;17.158;2023-12-20T01:23:19;98807.56;;;2.33;81.85
77587;BME280;66744;49.716;17.158;2023-12-20T01:26:21;98798.66;;;2.36;81.51
77587;BME280;66744;49.716;17.158;2023-12-20T01:29:29;98819.19;;;2.34;81.29
77587;BME280;66744;49.716;17.158;2023-12-20T01:32:35;98826.13;;;2.35;81.70
77587;BME280;66744;49.716;17.158;2023-12-20T01:35:38;98828.09;;;2.41;80.98
77587;BME280;66744;49.716;17.158;2023-12-20T01:38:39;98811.81;;;2.41;81.51
77587;BME280;66744;49.716;17.158;2023-12-20T01:41:41;98799.44;;;2.44;81.04
77587;BME280;66744;49.716;17.158;2023-12-20T01:44:45;98794.41;;;2.46;80.96
77587;BME280;66744;49.716;17.158;2023-12-20T01:47:48;98786.28;;;2.49;80.67
77587;BME280;66744;49.716;17.158;2023-12-20T01:50:51;98784.72;;;2.45;81.54
77587;BME280;66744;49.716;17.158;2023-12-20T01:53:57;98807.19;;;2.49;80.89
77587;BME280;66744;49.716;17.158;2023-12-20T01:57:01;98786.66;;;2.51;81.33
77587;BME280;66744;49.716;17.158;2023-12-20T02:04:43;98778.16;;;2.49;81.04
77587;BME280;66744;49.716;17.158;2023-12-20T02:07:51;98789.38;;;2.48;81.48
77587;BME280;66744;49.716;17.158;2023-12-20T02:10:55;98783.59;;;2.49;81.23
77587;BME280;66744;49.716;17.158;2023-12-20T02:13:57;98775.81;;;2.51;81.30
77587;BME280;66744;49.716;17.158;2023-12-20T02:16:59;98768.47;;;2.52;81.74
77587;BME280;66744;49.716;17.158;2023-12-20T02:20:03;98761.13;;;2.52;80.88
77587;BME280;66744;49.716;17.158;2023-12-20T02:23:07;98767.69;;;2.55;81.73
77587;BME280;66744;49.716;17.158;2023-12-20T02:26:10;98771.94;;;2.56;81.68
77587;BME280;66744;49.716;17.158;2023-12-20T02:29:13;98771.94;;;2.56;81.25
77587;BME280;66744;49.716;17.158;2023-12-20T02:32:20;98772.34;;;2.54;81.79
77587;BME280;66744;49.716;17.158;2023-12-20T02:35:22;98766.94;;;2.58;81.33
77587;BME280;66744;49.716;17.158;2023-12-20T02:38:27;98764.22;;;2.58;81.15
77587;BME280;66744;49.716;17.158;2023-12-20T02:41:29;98766.91;;;2.61;81.67
77587;BME280;66744;49.716;17.158;2023-12-20T02:44:34;98762.66;;;2.64;81.81
77587;BME280;66744;49.716;17.158;2023-12-20T02:47:38;98763.03;;;2.59;81.46
77587;BME280;66744;49.716;17.158;2023-12-20T02:50:41;98755.31;;;2.57;81.92
77587;BME280;66744;49.716;17.158;2023-12-20T02:53:44;98758.78;;;2.58;81.77
77587;BME280;66744;49.716;17.158;2023-12-20T02:56:49;98758.75;;;2.61;81.68
77587;BME280;66744;49.716;17.158;2023-12-20T02:59:53;98757.63;;;2.62;81.70
77587;BME280;66744;49.716;17.158;2023-12-20T03:02:54;98755.28;;;2.64;81.54
77587;BME280;66744;49.716;17.158;2023-12-20T03:05:56;98751.41;;;2.62;81.81
77587;BME280;66744;49.716;17.158;2023-12-20T03:08:57;98737.88;;;2.58;81.74
77587;BME280;66744;49.716;17.158;2023-12-20T03:12:01;98737.47;;;2.60;82.53
77587;BME280;66744;49.716;17.158;2023-12-20T03:15:05;98742.13;;;2.63;81.98
77587;BME280;66744;49.716;17.158;2023-12-20T03:18:08;98711.50;;;2.59;81.98
77587;BME280;66744;49.716;17.158;2023-12-20T03:21:09;98707.66;;;2.60;81.58
77587;BME280;66744;49.716;17.158;2023-12-20T03:24:16;98698.00;;;2.55;82.08
77587;BME280;66744;49.716;17.158;2023-12-20T03:27:17;98661.19;;;2.51;82.35
77587;BME280;66744;49.716;17.158;2023-12-20T03:30:19;98661.97;;;2.48;81.95
77587;BME280;66744;49.716;17.158;2023-12-20T03:33:21;98665.44;;;2.45;83.12
77587;BME280;66744;49.716;17.158;2023-12-20T03:36:22;98668.16;;;2.45;82.67
77587;BME280;66744;49.716;17.158;2023-12-20T03:39:29;98672.81;;;2.48;82.92
77587;BME280;66744;49.716;17.158;2023-12-20T03:42:33;98703.78;;;2.57;82.50
77587;BME280;66744;49.716;17.158;2023-12-20T03:45:35;98732.84;;;2.60;82.89
77587;BME280;66744;49.716;17.158;2023-12-20T03:48:39;98739.41;;;2.66;82.19
77587;BME280;66744;49.716;17.158;2023-12-20T03:51:41;98720.44;;;2.66;82.28
77587;BME280;66744;49.716;17.158;2023-12-20T03:54:44;98727.00;;;2.72;82.34
77587;BME280;66744;49.716;17.158;2023-12-20T03:57:45;98720.03;;;2.75;81.64
77587;BME280;66744;49.716;17.158;2023-12-20T04:00:48;98689.78;;;2.76;81.94
77587;BME280;66744;49.716;17.158;2023-12-20T04:03:51;98688.25;;;2.72;81.86
77587;BME280;66744;49.716;17.158;2023-12-20T04:06:53;98702.22;;;2.67;82.25
77587;BME280;66744;49.716;17.158;2023-12-20T04:09:55;98704.13;;;2.77;81.89
77587;BME280;66744;49.716;17.158;2023-12-20T04:13:04;98677.00;;;2.77;81.91
77587;BME280;66744;49.716;17.158;2023-12-20T04:16:06;98665.78;;;2.71;82.17
77587;BME280;66744;49.716;17.158;2023-12-20T04:19:08;98664.63;;;2.69;81.89
77587;BME280;66744;49.716;17.158;2023-12-20T04:22:10;98674.72;;;2.68;81.74
77587;BME280;66744;49.716;17.158;2023-12-20T04:25:12;98681.28;;;2.74;82.26
77587;BME280;66744;49.716;17.158;2023-12-20T04:28:14;98694.84;;;2.78;81.50
77587;BME280;66744;49.716;17.158;2023-12-20T04:31:15;98681.28;;;2.78;81.76
77587;BME280;66744;49.716;17.158;2023-12-20T04:34:20;98675.06;;;2.77;81.92
77587;BME280;66744;49.716;17.158;2023-12-20T04:37:24;98666.56;;;2.75;81.66
77587;BME280;66744;49.716;17.158;2023-12-20T04:40:27;98670.44;;;2.74;82.14
77587;BME280;66744;49.716;17.158;2023-12-20T04:43:31;98683.63;;;2.72;81.62
77587;BME280;66744;49.716;17.158;2023-12-20T04:46:33;98684.00;;;2.78;82.22
77587;BME280;66744;49.716;17.158;2023-12-20T04:49:37;98685.13;;;2.84;82.24
77587;BME280;66744;49.716;17.158;2023-12-20T04:52:38;98694.44;;;2.87;81.30
77587;BME280;66744;49.716;17.158;2023-12-20T04:55:39;98697.13;;;2.90;82.02
77587;BME280;66744;49.716;17.158;2023-12-20T04:58:42;98697.13;;;2.90;81.15
77587;BME280;66744;49.716;17.158;2023-12-20T05:01:48;98696.34;;;2.90;81.41
77587;BME280;66744;49.716;17.158;2023-12-20T05:04:51;98686.28;;;2.87;80.71
77587;BME280;66744;49.716;17.158;2023-12-20T05:08:08;98691.31;;;2.88;81.88
77587;BME280;66744;49.716;17.158;2023-12-20T05:11:10;98696.38;;;2.83;81.32
77587;BME280;66744;49.716;17.158;2023-12-20T05:14:17;98698.69;;;2.80;80.84
77587;BME280;66744;49.716;17.158;2023-12-20T05:17:21;98690.97;;;2.79;80.94
77587;BME280;66744;49.716;17.158;2023-12-20T05:20:23;98696.78;;;2.85;81.85
77587;BME280;66744;49.716;17.158;2023-12-20T05:23:24;98692.91;;;2.82;81.05
77587;BME280;66744;49.716;17.158;2023-12-20T05:26:29;98694.44;;;2.79;81.13
77587;BME280;66744;49.716;17.158;2023-12-20T05:29:32;98690.59;;;2.70;81.61
77587;BME280;66744;49.716;17.158;2023-12-20T05:32:37;98687.50;;;2.61;81.83
77587;BME280;66744;49.716;17.158;2023-12-20T05:35:38;98671.63;;;2.59;81.77
77587;BME280;66744;49.716;17.158;2023-12-20T05:38:42;98673.56;;;2.59;81.65
77587;BME280;66744;49.716;17.158;2023-12-20T05:41:44;98678.19;;;2.62;82.48
77587;BME280;66744;49.716;17.158;2023-12-20T05:44:46;98679.75;;;2.59;82.47
77587;BME280;66744;49.716;17.158;2023-12-20T05:47:49;98686.75;;;2.64;81.68
77587;BME280;66744;49.716;17.158;2023-12-20T05:51:14;98689.06;;;2.58;82.17
77587;BME280;66744;49.716;17.158;2023-12-20T05:54:16;98682.47;;;2.56;82.43
77587;BME280;66744;49.716;17.158;2023-12-20T05:57:20;98684.81;;;2.54;81.95
77587;BME280;66744;49.716;17.158;2023-12-20T06:00:23;98677.06;;;2.42;83.17
77587;BME280;66744;49.716;17.158;2023-12-20T06:03:29;98680.16;;;2.44;82.71
77587;BME280;66744;49.716;17.158;2023-12-20T06:06:33;98688.28;;;2.44;82.67
77587;BME280;66744;49.716;17.158;2023-12-20T06:09:37;98685.97;;;2.42;82.99
77587;BME280;66744;49.716;17.158;2023-12-20T06:12:42;98690.63;;;2.45;83.05
77587;BME280;66744;49.716;17.158;2023-12-20T06:15:44;98686.00;;;2.49;83.71
77587;BME280;66744;49.716;17.158;2023-12-20T06:18:46;98686.00;;;2.49;82.88
77587;BME280;66744;49.716;17.158;2023-12-20T06:21:50;98689.84;;;2.48;83.14
77587;BME280;66744;49.716;17.158;2023-12-20T06:24:52;98695.28;;;2.48;83.83
77587;BME280;66744;49.716;17.158;2023-12-20T06:27:56;98687.88;;;2.56;83.76
77587;BME280;66744;49.716;17.158;2023-12-20T06:31:01;98697.59;;;2.50;82.48
77587;BME280;66744;49.716;17.158;2023-12-20T06:34:07;98700.31;;;2.43;82.66
77587;BME280;66744;49.716;17.158;2023-12-20T06:37:11;98699.91;;;2.48;83.20
77587;BME280;66744;49.716;17.158;2023-12-20T06:40:16;98704.16;;;2.59;83.75
77587;BME280;66744;49.716;17.158;2023-12-20T06:43:17;98706.50;;;2.61;83.27
77587;BME280;66744;49.716;17.158;2023-12-20T06:46:23;98699.13;;;2.61;82.97
77587;BME280;66744;49.716;17.158;2023-12-20T06:49:25;98696.78;;;2.70;82.82
77587;BME280;66744;49.716;17.158;2023-12-20T06:52:26;98713.44;;;2.76;82.56
77587;BME280;66744;49.716;17.158;2023-12-20T06:55:30;98719.63;;;2.80;82.34
77587;BME280;66744;49.716;17.158;2023-12-20T06:58:34;98700.63;;;2.80;82.06
77587;BME280;66744;49.716;17.158;2023-12-20T07:01:39;98702.97;;;2.82;82.66
77587;BME280;66744;49.716;17.158;2023-12-20T07:04:42;98707.25;;;2.79;82.71
77587;BME280;66744;49.716;17.158;2023-12-20T07:07:43;98697.56;;;2.78;82.38
77587;BME280;66744;49.716;17.158;2023-12-20T07:10:46;98714.59;;;2.78;81.57
77587;BME280;66744;49.716;17.158;2023-12-20T07:13:51;98713.81;;;2.78;82.07
77587;BME280;66744;49.716;17.158;2023-12-20T07:16:54;98720.41;;;2.80;82.63
77587;BME280;66744;49.716;17.158;2023-12-20T07:19:57;98709.94;;;2.83;82.10
77587;BME280;66744;49.716;17.158;2023-12-20T07:22:58;98711.09;;;2.82;81.74
77587;BME280;66744;49.716;17.158;2023-12-20T07:26:01;98721.19;;;2.81;82.36
77587;BME280;66744;49.716;17.158;2023-12-20T07:29:08;98718.47;;;2.85;82.34
77587;BME280;66744;49.716;17.158;2023-12-20T07:32:14;98720.00;;;2.86;81.98
77587;BME280;66744;49.716;17.158;2023-12-20T07:35:19;98722.34;;;2.87;82.02
77587;BME280;66744;49.716;17.158;2023-12-20T07:38:22;98730.88;;;2.82;82.06
77587;BME280;66744;49.716;17.158;2023-12-20T07:41:25;98730.84;;;2.86;82.21
77587;BME280;66744;49.716;17.158;2023-12-20T07:44:29;98733.56;;;2.86;82.36
77587;BME280;66744;49.716;17.158;2023-12-20T07:47:33;98737.03;;;2.90;82.31
77587;BME280;66744;49.716;17.158;2023-12-20T07:50:35;98733.19;;;2.84;81.83
77587;BME280;66744;49.716;17.158;2023-12-20T07:53:36;98734.75;;;2.81;82.61
77587;BME280;66744;49.716;17.158;2023-12-20T07:56:38;98742.50;;;2.79;82.57
77587;BME280;66744;49.716;17.158;2023-12-20T07:59:41;98733.97;;;2.84;82.76
77587;BME280;66744;49.716;17.158;2023-12-20T08:02:43;98738.97;;;2.93;82.54
77587;BME280;66744;49.716;17.158;2023-12-20T08:05:48;98742.84;;;2.92;82.29
77587;BME280;66744;49.716;17.158;2023-12-20T08:08:51;98748.69;;;2.90;82.25
77587;BME280;66744;49.716;17.158;2023-12-20T08:11:55;98752.91;;;2.95;82.02
77587;BME280;66744;49.716;17.158;2023-12-20T08:14:58;98752.50;;;3.03;82.26
77587;BME280;66744;49.716;17.158;2023-12-20T08:18:03;98747.50;;;2.98;81.87
77587;BME280;66744;49.716;17.158;2023-12-20T08:21:06;98745.56;;;2.92;82.50
77587;BME280;66744;49.716;17.158;2023-12-20T08:24:13;98751.78;;;2.92;83.16
77587;BME280;66744;49.716;17.158;2023-12-20T08:27:15;98754.47;;;2.99;82.64
77587;BME280;66744;49.716;17.158;2023-12-20T08:30:16;98756.78;;;3.04;82.39
77587;BME280;66744;49.716;17.158;2023-12-20T08:33:22;98754.06;;;3.08;82.39
77587;BME280;66744;49.716;17.158;2023-12-20T08:36:27;98768.78;;;3.14;82.42
77587;BME280;66744;49.716;17.158;2023-12-20T08:39:30;98756.75;;;3.18;81.93
77587;BME280;66744;49.716;17.158;2023-12-20T08:42:39;98759.44;;;3.18;81.86
77587;BME280;66744;49.716;17.158;2023-12-20T08:45:40;98757.13;;;3.20;81.69
77587;BME280;66744;49.716;17.158;2023-12-20T08:48:45;98752.88;;;3.23;81.77
77587;BME280;66744;49.716;17.158;2023-12-20T08:51:48;98760.22;;;3.26;81.64
77587;BME280;66744;49.716;17.158;2023-12-20T08:54:55;98766.81;;;3.21;81.83
77587;BME280;66744;49.716;17.158;2023-12-20T08:57:59;98761.78;;;3.23;82.00
77587;BME280;66744;49.716;17.158;2023-12-20T09:01:06;98767.97;;;3.24;82.11
77587;BME280;66744;49.716;17.158;2023-12-20T09:04:09;98770.31;;;3.25;82.16
77587;BME280;66744;49.716;17.158;2023-12-20T09:07:24;98771.09;;;3.22;81.48
77587;BME280;66744;49.716;17.158;2023-12-20T09:10:26;98768.00;;;3.20;82.69
77587;BME280;66744;49.716;17.158;2023-12-20T09:13:30;98767.22;;;3.23;82.50
77587;BME280;66744;49.716;17.158;2023-12-20T09:16:36;98768.38;;;3.19;83.02
77587;BME280;66744;49.716;17.158;2023-12-20T09:19:37;98767.59;;;3.22;82.55
77587;BME280;66744;49.716;17.158;2023-12-20T09:22:40;98769.94;;;3.23;83.18
77587;BME280;66744;49.716;17.158;2023-12-20T09:25:42;98766.00;;;3.35;82.56
77587;BME280;66744;49.716;17.158;2023-12-20T09:28:45;98762.47;;;3.42;82.42
77587;BME280;66744;49.716;17.158;2023-12-20T09:31:46;98764.41;;;3.45;82.50
77587;BME280;66744;49.716;17.158;2023-12-20T09:34:51;98757.41;;;3.51;82.30
77587;BME280;66744;49.716;17.158;2023-12-20T09:37:55;98759.31;;;3.57;81.86
77587;BME280;66744;49.716;17.158;2023-12-20T09:40:59;98766.66;;;3.64;82.00
77587;BME280;66744;49.716;17.158;2023-12-20T09:44:02;98751.88;;;3.68;81.61
77587;BME280;66744;49.716;17.158;2023-12-20T09:47:12;98742.56;;;3.73;81.95
77587;BME280;66744;49.716;17.158;2023-12-20T09:50:21;98741.38;;;3.77;82.63
77587;BME280;66744;49.716;17.158;2023-12-20T09:53:26;98737.09;;;3.80;81.84
77587;BME280;66744;49.716;17.158;2023-12-20T09:56:33;98734.75;;;3.85;80.76
77587;BME280;66744;49.716;17.158;2023-12-20T09:59:40;98731.97;;;3.89;81.81
77587;BME280;66744;49.716;17.158;2023-12-20T10:02:53;98735.81;;;3.95;81.06
77587;BME280;66744;49.716;17.158;2023-12-20T10:05:58;98730.78;;;3.97;81.91
77587;BME280;66744;49.716;17.158;2023-12-20T10:09:03;98731.13;;;4.03;81.75
77587;BME280;66744;49.716;17.158;2023-12-20T10:12:07;98740.06;;;4.07;82.06
77587;BME280;66744;49.716;17.158;2023-12-20T10:15:08;98733.06;;;4.02;81.97
77587;BME280;66744;49.716;17.158;2023-12-20T10:18:15;98736.22;;;3.97;82.47
77587;BME280;66744;49.716;17.158;2023-12-20T10:21:17;98747.13;;;3.90;82.45
77587;BME280;66744;49.716;17.158;2023-12-20T10:24:22;98729.25;;;3.89;82.13
77587;BME280;66744;49.716;17.158;2023-12-20T10:27:23;98732.03;;;3.85;83.27
77587;BME280;66744;49.716;17.158;2023-12-20T10:30:28;98726.25;;;3.80;84.26
77587;BME280;66744;49.716;17.158;2023-12-20T10:33:30;98731.69;;;3.80;83.39
77587;BME280;66744;49.716;17.158;2023-12-20T10:36:38;98726.25;;;3.80;85.05
77587;BME280;66744;49.716;17.158;2023-12-20T10:39:40;98723.09;;;3.85;84.89
77587;BME280;66744;49.716;17.158;2023-12-20T10:42:50;98718.38;;;3.92;84.01
77587;BME280;66744;49.716;17.158;2023-12-20T10:45:53;98720.31;;;3.92;84.71
77587;BME280;66744;49.716;17.158;2023-12-20T10:48:55;98728.09;;;3.93;84.17
77587;BME280;66744;49.716;17.158;2023-12-20T10:51:59;98728.09;;;3.93;84.72
77587;BME280;66744;49.716;17.158;2023-12-20T10:55:06;98718.38;;;3.92;85.56
77587;BME280;66744;49.716;17.158;2023-12-20T10:58:09;98719.84;;;4.04;85.50
77587;BME280;66744;49.716;17.158;2023-12-20T11:01:17;98712.47;;;4.08;84.59
77587;BME280;66744;49.716;17.158;2023-12-20T11:04:28;98710.94;;;4.04;85.11
77587;BME280;66744;49.716;17.158;2023-12-20T11:07:38;98713.25;;;4.09;85.53
77587;BME280;66744;49.716;17.158;2023-12-20T11:14:20;98704.97;;;4.23;85.05
77587;BME280;66744;49.716;17.158;2023-12-20T11:17:24;98697.63;;;4.20;84.61
77587;BME280;66744;49.716;17.158;2023-12-20T11:20:51;98701.13;;;4.17;84.83
77587;BME280;66744;49.716;17.158;2023-12-20T11:23:54;98690.56;;;4.29;83.42
77587;BME280;66744;49.716;17.158;2023-12-20T11:27:00;98694.41;;;4.32;84.25
77587;BME280;66744;49.716;17.158;2023-12-20T11:30:04;98675.09;;;4.19;84.96
77587;BME280;66744;49.716;17.158;2023-12-20T11:33:11;98676.59;;;4.27;84.67
77587;BME280;66744;49.716;17.158;2023-12-20T11:36:18;98670.34;;;4.30;86.26
77587;BME280;66744;49.716;17.158;2023-12-20T11:39:22;98668.38;;;4.34;85.82
77587;BME280;66744;49.716;17.158;2023-12-20T11:42:24;98669.03;;;4.45;84.84
77587;BME280;66744;49.716;17.158;2023-12-20T11:45:25;98661.69;;;4.42;85.79
77587;BME280;66744;49.716;17.158;2023-12-20T11:48:28;98677.56;;;4.51;85.12
77587;BME280;66744;49.716;17.158;2023-12-20T11:51:35;98671.22;;;4.61;84.76
77587;BME280;66744;49.716;17.158;2023-12-20T11:54:41;98679.31;;;4.68;84.95
77587;BME280;66744;49.716;17.158;2023-12-20T11:57:43;98671.47;;;4.77;84.03
77587;BME280;66744;49.716;17.158;2023-12-20T12:00:50;98665.25;;;4.77;84.19
77587;BME280;66744;49.716;17.158;2023-12-20T12:04:05;98666.72;;;4.81;83.83
77587;BME280;66744;49.716;17.158;2023-12-20T12:07:09;98662.84;;;4.82;83.55
77587;BME280;66744;49.716;17.158;2023-12-20T12:10:14;98656.31;;;4.76;83.91
77587;BME280;66744;49.716;17.158;2023-12-20T12:13:17;98645.06;;;4.74;82.64
77587;BME280;66744;49.716;17.158;2023-12-20T12:16:19;98638.91;;;4.67;84.38
77587;BME280;66744;49.716;17.158;2023-12-20T12:19:26;98642.81;;;4.66;84.43
77587;BME280;66744;49.716;17.158;2023-12-20T12:22:31;98639.78;;;4.60;84.77
77587;BME280;66744;49.716;17.158;2023-12-20T12:25:37;98657.25;;;4.59;83.92
77587;BME280;66744;49.716;17.158;2023-12-20T12:28:44;98642.91;;;4.55;85.64
77587;BME280;66744;49.716;17.158;2023-12-20T12:31:46;98654.13;;;4.61;85.36
77587;BME280;66744;49.716;17.158;2023-12-20T12:34:48;98654.13;;;4.61;84.59
77587;BME280;66744;49.716;17.158;2023-12-20T12:37:51;98651.38;;;4.64;85.03
77587;BME280;66744;49.716;17.158;2023-12-20T12:40:54;98648.28;;;4.62;85.41
77587;BME280;66744;49.716;17.158;2023-12-20T12:43:56;98639.22;;;4.72;84.31
77587;BME280;66744;49.716;17.158;2023-12-20T12:47:00;98642.81;;;4.66;84.59
77587;BME280;66744;49.716;17.158;2023-12-20T12:50:02;98640.03;;;4.69;85.38
77587;BME280;66744;49.716;17.158;2023-12-20T12:53:09;98643.34;;;4.87;84.98
77587;BME280;66744;49.716;17.158;2023-12-20T12:56:12;98648.75;;;4.91;83.70
77587;BME280;66744;49.716;17.158;2023-12-20T12:59:17;98648.69;;;4.98;84.61
77587;BME280;66744;49.716;17.158;2023-12-20T13:02:19;98637.69;;;5.05;84.20
77587;BME280;66744;49.716;17.158;2023-12-20T13:05:21;98633.16;;;4.95;84.16
77587;BME280;66744;49.716;17.158;2023-12-20T13:08:24;98641.97;;;5.06;85.17
77587;BME280;66744;49.716;17.158;2023-12-20T13:11:33;98643.03;;;5.16;83.84
77587;BME280;66744;49.716;17.158;2023-12-20T13:14:35;98641.28;;;5.29;83.69
77587;BME280;66744;49.716;17.158;2023-12-20T13:17:42;98645.44;;;5.40;83.44
77587;BME280;66744;49.716;17.158;2023-12-20T13:20:44;98631.69;;;5.47;82.69
77587;BME280;66744;49.716;17.158;2023-12-20T13:23:49;98624.25;;;5.51;83.00
77587;BME280;66744;49.716;17.158;2023-12-20T13:26:54;98634.28;;;5.58;82.28
77587;BME280;66744;49.716;17.158;2023-12-20T13:29:55;98628.38;;;5.63;82.51
77587;BME280;66744;49.716;17.158;2023-12-20T13:32:58;98627.50;;;5.70;82.79
77587;BME280;66744;49.716;17.158;2023-12-20T13:35:59;98624.69;;;5.73;81.58
77587;BME280;66744;49.716;17.158;2023-12-20T13:39:04;98627.81;;;5.75;82.33
77587;BME280;66744;49.716;17.158;2023-12-20T13:42:06;98623.53;;;5.74;81.12
77587;BME280;66744;49.716;17.158;2023-12-20T13:45:07;98623.56;;;5.71;81.26
77587;BME280;66744;49.716;17.158;2023-12-20T13:48:10;98612.75;;;5.67;82.58
77587;BME280;66744;49.716;17.158;2023-12-20T13:51:13;98604.63;;;5.64;82.39
77587;BME280;66744;49.716;17.158;2023-12-20T13:54:16;98605.81;;;5.63;80.86
77587;BME280;66744;49.716;17.158;2023-12-20T13:57:22;98610.44;;;5.66;81.31
77587;BME280;66744;49.716;17.158;2023-12-20T14:00:25;98616.66;;;5.66;81.83
77587;BME280;66744;49.716;17.158;2023-12-20T14:03:29;98616.19;;;5.71;82.73
77587;BME280;66744;49.716;17.158;2023-12-20T14:06:35;98609.94;;;5.71;81.96
77587;BME280;66744;49.716;17.158;2023-12-20T14:09:37;98616.13;;;5.75;82.13
77587;BME280;66744;49.716;17.158;2023-12-20T14:12:38;98621.94;;;5.77;80.85
77587;BME280;66744;49.716;17.158;2023-12-20T14:15:41;98624.59;;;5.80;81.10
77587;BME280;66744;49.716;17.158;2023-12-20T14:18:42;98636.69;;;5.79;80.41
77587;BME280;66744;49.716;17.158;2023-12-20T14:21:46;98637.47;;;5.80;80.67
77587;BME280;66744;49.716;17.158;2023-12-20T14:24:48;98634.38;;;5.78;80.85
77587;BME280;66744;49.716;17.158;2023-12-20T14:27:51;98635.16;;;5.78;80.00
77587;BME280;66744;49.716;17.158;2023-12-20T14:30:52;98635.16;;;5.78;79.54
77587;BME280;66744;49.716;17.158;2023-12-20T14:33:55;98640.66;;;5.75;80.60
77587;BME280;66744;49.716;17.158;2023-12-20T14:36:58;98639.47;;;5.76;79.36
77587;BME280;66744;49.716;17.158;2023-12-20T14:40:00;98648.41;;;5.76;79.34
77587;BME280;66744;49.716;17.158;2023-12-20T14:43:07;98644.81;;;5.83;79.87
77587;BME280;66744;49.716;17.158;2023-12-20T14:46:09;98652.59;;;5.84;80.13
77587;BME280;66744;49.716;17.158;2023-12-20T14:49:10;98648.75;;;5.82;79.02
77587;BME280;66744;49.716;17.158;2023-12-20T14:52:18;98640.91;;;5.84;78.60
77587;BME280;66744;49.716;17.158;2023-12-20T14:55:20;98641.75;;;5.81;79.96
77587;BME280;66744;49.716;17.158;2023-12-20T14:58:23;98636.69;;;5.79;77.88
77587;BME280;66744;49.716;17.158;2023-12-20T15:01:27;98631.34;;;5.72;78.76
77587;BME280;66744;49.716;17.158;2023-12-20T15:04:29;98634.94;;;5.66;79.44
77587;BME280;66744;49.716;17.158;2023-12-20T15:07:33;98624.91;;;5.59;78.28
77587;BME280;66744;49.716;17.158;2023-12-20T15:10:38;98631.66;;;5.51;78.27
77587;BME280;66744;49.716;17.158;2023-12-20T15:13:42;98632.16;;;5.42;77.74
77587;BME280;66744;49.716;17.158;2023-12-20T15:16:46;98640.81;;;5.37;78.88
77587;BME280;66744;49.716;17.158;2023-12-20T15:19:51;98642.75;;;5.37;78.92
77587;BME280;66744;49.716;17.158;2023-12-20T15:23:00;98645.16;;;5.31;77.63
77587;BME280;66744;49.716;17.158;2023-12-20T15:26:12;98649.88;;;5.27;77.92
77587;BME280;66744;49.716;17.158;2023-12-20T15:29:15;98640.25;;;5.19;78.05
77587;BME280;66744;49.716;17.158;2023-12-20T15:32:18;98644.56;;;5.17;78.53
77587;BME280;66744;49.716;17.158;2023-12-20T15:35:30;98649.28;;;5.13;77.17
77587;BME280;66744;49.716;17.158;2023-12-20T15:38:32;98657.41;;;5.16;79.54
77587;BME280;66744;49.716;17.158;2023-12-20T15:41:40;98644.19;;;5.15;77.54
77587;BME280;66744;49.716;17.158;2023-12-20T15:44:44;98646.13;;;5.14;77.65
77587;BME280;66744;49.716;17.158;2023-12-20T15:47:46;98636.44;;;5.13;78.10
77587;BME280;66744;49.716;17.158;2023-12-20T15:50:55;98641.47;;;5.15;77.54
77587;BME280;66744;49.716;17.158;2023-12-20T15:53:56;98637.63;;;5.12;79.32
77587;BME280;66744;49.716;17.158;2023-12-20T15:57:00;98633.44;;;5.04;78.36
77587;BME280;66744;49.716;17.158;2023-12-20T16:00:03;98631.97;;;4.96;77.82
77587;BME280;66744;49.716;17.158;2023-12-20T16:03:13;98630.16;;;4.86;78.48
77587;BME280;66744;49.716;17.158;2023-12-20T16:06:15;98629.81;;;4.84;79.41
77587;BME280;66744;49.716;17.158;2023-12-20T16:09:18;98635.63;;;4.82;78.94
77587;BME280;66744;49.716;17.158;2023-12-20T16:12:19;98643.97;;;4.68;79.04
77587;BME280;66744;49.716;17.158;2023-12-20T16:15:24;98638.13;;;4.66;79.26
77587;BME280;66744;49.716;17.158;2023-12-20T16:18:28;98647.44;;;4.69;79.50
77587;BME280;66744;49.716;17.158;2023-12-20T16:21:34;98649.38;;;4.72;78.45